Royersford, PA

7:24 AM EST on November 28, 2014 (GMT -0500)
Ed's House Trappe | Change Station
CLOSE
Current Station
Personal Weather Station
Location: Collegeville, PA
Elevation: 330 ft
Nearby Weather Stations

Elev 330 ft 40.20 °N, 75.48 °W | Updated 4 seconds ago

Clear
Clear
31.9 °F
Feels Like 28 °F
N
4.0
Wind Variable Wind from WNW
Gusts 4.0 mph

Today
High -- | Low -- °F
--% Chance of Precip.
Yesterday
High -- | Low -- °F
Precip. -- in
7:02 AM 4:37 PM
Waxing Crescent, 40% visible
Pressure 30.19 in
Visibility 10.0 miles
Clouds Clear
Windchill 28 °F
Dew Point 26 °F
Humidity 80%
Rainfall 0.00 in
Snow Depth Not available.
UV 0.0 out of 12
Pollen .10 out of 12
Air Quality Not available.
Flu Activity Not available.
METAR KPTW 281154Z AUTO 29003KT 10SM CLR M02/M06 A3018 RMK AO2 SLP222 60000 T10221061 11011 21039 53017

More Conditions Fewer Conditions

Pressure 30.19 in
Visibility 10.0 miles
Clouds Clear
Windchill 28 °F
Dew Point 26 °F
Humidity 80%
Rainfall 0.00 in
Snow Depth Not available.
UV 0.0 out of 12
Pollen .10 out of 12
Air Quality Not available.
Flu Activity Not available.
METAR KPTW 281154Z AUTO 29003KT 10SM CLR M02/M06 A3018 RMK AO2 SLP222 60000 T10221061 11011 21039 53017

More Conditions Fewer Conditions

10-Day Weather Forecast

Almanac

Astronomy

Nov. 28, 2014 Rise Set
Actual Time
Civil Twilight
Nautical Twilight
Astronomical Twilight
Moon
Length of Visible Light
Length of Day
Tomorrow will be .
, % of the Moon is Illuminated

Today's Extremes

State Highs State Lows

Community

WunderPhotos

Upload Photos

1,774,199 photos uploaded!

WunderBlogs® & News

Nearby

Air Quality

  Air Quality AQ Index Pollutant
Not available.

Snow Depth

Station Depth Elevation

Earthquake Activity

City Distance Mag. Time & Date
Minimum magnitude displayed is 2.5.

Coastal Water Temperatures

Place Temperature

Nearby Weather Stations